createdAt,value
2022-07-27T00:01:09.185Z,1.00
2022-07-27T00:03:36.793Z,1.10
2022-07-27T00:06:04.316Z,1.10
2022-07-27T00:08:31.795Z,1.07
2022-07-27T00:10:59.356Z,1.47
2022-07-27T00:13:27.018Z,1.27
2022-07-27T00:15:54.571Z,1.70
2022-07-27T00:18:22.464Z,1.10
2022-07-27T00:20:49.923Z,1.40
2022-07-27T00:23:17.405Z,1.00
2022-07-27T00:25:44.886Z,1.50
2022-07-27T00:28:12.352Z,1.40
2022-07-27T00:30:39.924Z,1.40
2022-07-27T00:33:07.518Z,1.10
2022-07-27T00:35:35.910Z,1.17
2022-07-27T00:38:03.473Z,1.13
2022-07-27T00:40:30.959Z,1.17
2022-07-27T00:42:58.432Z,1.63
2022-07-27T00:45:25.921Z,1.67
2022-07-27T00:47:55.231Z,1.30
2022-07-27T00:50:22.878Z,1.37
2022-07-27T00:52:50.358Z,1.40
2022-07-27T00:55:17.871Z,1.00
2022-07-27T00:57:58.901Z,1.13
2022-07-27T01:00:27.870Z,1.23
2022-07-27T01:02:57.515Z,1.00
2022-07-27T01:05:35.815Z,1.30
2022-07-27T01:08:04.201Z,1.40
2022-07-27T01:10:31.680Z,1.50
2022-07-27T01:12:59.329Z,1.30
2022-07-27T01:15:26.943Z,1.07
2022-07-27T01:17:54.455Z,1.30
2022-07-27T01:20:21.939Z,1.60
2022-07-27T01:22:49.429Z,1.83
2022-07-27T01:25:16.939Z,1.23
2022-07-27T01:27:44.409Z,1.30
2022-07-27T01:30:12.261Z,1.30
2022-07-27T01:32:39.769Z,1.10
2022-07-27T01:35:07.576Z,1.30
2022-07-27T01:37:35.051Z,1.20
2022-07-27T01:40:02.623Z,1.00
2022-07-27T01:42:30.103Z,1.10
2022-07-27T01:44:57.576Z,1.17
2022-07-27T01:47:25.088Z,1.20
2022-07-27T01:49:52.573Z,1.27
2022-07-27T01:52:20.030Z,1.13
2022-07-27T01:54:47.511Z,1.17
2022-07-27T01:57:15.015Z,1.10
2022-07-27T01:59:42.481Z,1.20
2022-07-27T02:02:10.055Z,1.30
2022-07-27T02:04:37.593Z,1.30
2022-07-27T02:07:05.128Z,1.70
2022-07-27T02:09:32.601Z,1.80
2022-07-27T02:12:00.138Z,1.20
2022-07-27T02:14:27.654Z,1.40
2022-07-27T02:16:55.588Z,1.30
2022-07-27T02:19:23.077Z,1.90
2022-07-27T02:21:50.549Z,1.33
2022-07-27T02:24:17.998Z,1.53
2022-07-27T02:26:45.465Z,1.77
2022-07-27T02:29:17.148Z,1.50
2022-07-27T02:31:44.604Z,2.10
2022-07-27T02:34:12.103Z,1.73
2022-07-27T02:36:39.602Z,1.53
2022-07-27T02:39:07.195Z,1.40
2022-07-27T02:41:34.636Z,1.43
2022-07-27T02:44:02.132Z,1.33
2022-07-27T02:46:29.658Z,1.40
2022-07-27T02:48:57.225Z,1.50
2022-07-27T02:51:24.789Z,1.37
2022-07-27T02:53:52.369Z,2.00
2022-07-27T02:56:19.858Z,2.33
2022-07-27T02:58:54.511Z,1.70
2022-07-27T03:01:22.451Z,1.30
2022-07-27T03:03:49.970Z,1.77
2022-07-27T03:06:17.462Z,1.80
2022-07-27T03:08:45.015Z,1.57
2022-07-27T03:11:12.491Z,1.77
2022-07-27T03:13:39.968Z,2.33
2022-07-27T03:16:07.500Z,1.67
2022-07-27T03:18:35.053Z,1.83
2022-07-27T03:21:02.559Z,1.93
2022-07-27T03:23:30.879Z,1.70
2022-07-27T03:25:58.519Z,3.20
2022-07-27T03:28:26.161Z,2.30
2022-07-27T03:30:53.722Z,1.70
2022-07-27T03:33:21.196Z,2.20
2022-07-27T03:35:48.649Z,2.40
2022-07-27T03:38:16.204Z,2.53
2022-07-27T03:40:44.998Z,2.33
2022-07-27T03:43:12.456Z,2.53
2022-07-27T03:45:39.963Z,2.77
2022-07-27T03:48:07.490Z,2.80
2022-07-27T03:50:34.965Z,2.63
2022-07-27T03:53:02.508Z,2.80
2022-07-27T03:55:30.014Z,3.03
2022-07-27T03:57:57.556Z,2.70
2022-07-27T04:00:25.072Z,2.70
2022-07-27T04:02:52.587Z,3.07
2022-07-27T04:05:20.131Z,2.60
2022-07-27T04:07:47.676Z,2.93
2022-07-27T04:10:19.590Z,2.80
2022-07-27T04:12:47.191Z,2.90
2022-07-27T04:15:15.364Z,3.30
2022-07-27T04:17:54.070Z,2.80
2022-07-27T04:20:25.360Z,3.07
2022-07-27T04:22:52.882Z,3.17
2022-07-27T04:25:20.464Z,3.57
2022-07-27T04:27:47.960Z,3.70
2022-07-27T04:30:15.455Z,3.50
2022-07-27T04:32:42.911Z,3.57
2022-07-27T04:35:10.562Z,2.90
2022-07-27T04:37:38.016Z,3.73
2022-07-27T04:40:05.790Z,3.33
2022-07-27T04:42:33.263Z,2.67
2022-07-27T04:45:00.719Z,3.30
2022-07-27T04:47:28.232Z,3.47
2022-07-27T04:49:56.012Z,2.87
2022-07-27T04:52:26.477Z,2.93
2022-07-27T04:54:55.030Z,3.50
2022-07-27T04:57:22.484Z,2.50
2022-07-27T04:59:50.040Z,2.20
2022-07-27T05:02:17.844Z,2.13
2022-07-27T05:04:45.381Z,2.50
2022-07-27T05:07:12.831Z,2.80
2022-07-27T05:09:41.646Z,2.50
2022-07-27T05:12:09.147Z,2.30
2022-07-27T05:14:36.760Z,2.30
2022-07-27T05:17:05.138Z,1.80
2022-07-27T05:19:40.220Z,2.20
2022-07-27T05:22:08.908Z,2.37
2022-07-27T05:24:36.723Z,2.50
2022-07-27T05:27:04.341Z,2.23
2022-07-27T05:29:31.789Z,1.83
2022-07-27T05:31:59.446Z,2.57
2022-07-27T05:34:27.066Z,2.63
2022-07-27T05:36:54.691Z,3.70
2022-07-27T05:39:22.435Z,3.23
2022-07-27T05:41:50.139Z,6.27
2022-07-27T05:44:17.791Z,5.23
2022-07-27T05:46:45.440Z,6.77
2022-07-27T05:49:13.364Z,5.83
2022-07-27T05:51:41.290Z,3.70
2022-07-27T05:54:08.805Z,2.33
2022-07-27T05:56:36.476Z,1.73
2022-07-27T05:59:07.352Z,2.27
2022-07-27T06:01:35.206Z,1.53
2022-07-27T06:04:02.844Z,1.73
2022-07-27T06:06:30.805Z,1.93
2022-07-27T06:09:00.788Z,1.60
2022-07-27T06:11:28.292Z,1.53
2022-07-27T06:13:55.761Z,1.53
2022-07-27T06:16:24.147Z,1.37
2022-07-27T06:18:51.701Z,1.40
2022-07-27T06:21:19.180Z,1.20
2022-07-27T06:23:46.730Z,1.47
2022-07-27T06:26:14.340Z,1.40
2022-07-27T06:28:41.948Z,1.30
2022-07-27T06:31:09.821Z,2.03
2022-07-27T06:33:38.559Z,1.43
2022-07-27T06:36:06.425Z,1.00
2022-07-27T06:38:33.953Z,1.43
2022-07-27T06:41:01.835Z,1.10
2022-07-27T06:43:31.806Z,1.10
2022-07-27T06:45:59.361Z,1.77
2022-07-27T06:48:27.359Z,1.37
2022-07-27T06:50:55.053Z,1.60
2022-07-27T06:53:22.633Z,1.30
2022-07-27T06:55:50.636Z,1.17
2022-07-27T06:58:19.301Z,0.90
2022-07-27T07:00:46.600Z,1.20
2022-07-27T07:03:13.820Z,1.10
2022-07-27T07:05:45.663Z,1.63
2022-07-27T07:08:13.532Z,1.30
2022-07-27T07:10:41.836Z,1.50
2022-07-27T07:13:09.787Z,0.87
2022-07-27T07:15:38.325Z,1.10
2022-07-27T07:18:06.338Z,0.90
2022-07-27T07:20:34.462Z,1.30
2022-07-27T07:23:02.018Z,1.27
2022-07-27T07:25:29.641Z,1.00
2022-07-27T07:27:57.519Z,1.00
2022-07-27T07:30:25.214Z,0.93
2022-07-27T07:32:52.665Z,1.07
2022-07-27T07:35:20.220Z,1.10
2022-07-27T07:37:50.081Z,0.80
2022-07-27T07:40:42.123Z,1.00
2022-07-27T07:43:06.403Z,0.97
2022-07-27T07:45:35.157Z,1.10
2022-07-27T07:48:02.653Z,1.57
2022-07-27T07:50:30.347Z,1.17
2022-07-27T07:52:57.924Z,1.00
2022-07-27T07:55:29.002Z,0.80
2022-07-27T07:57:57.419Z,0.97
2022-07-27T08:00:25.106Z,1.07
2022-07-27T08:02:55.253Z,1.10
2022-07-27T08:05:23.040Z,0.80
2022-07-27T08:07:50.975Z,0.80
2022-07-27T08:10:19.738Z,0.70
2022-07-27T08:12:48.956Z,1.00
2022-07-27T08:15:16.847Z,0.90
2022-07-27T08:17:44.425Z,0.80
2022-07-27T08:20:13.139Z,0.80
2022-07-27T08:22:40.816Z,0.60
2022-07-27T08:25:09.189Z,0.60
2022-07-27T08:27:40.269Z,1.20
2022-07-27T08:30:09.856Z,0.70
2022-07-27T08:32:59.406Z,0.90
2022-07-27T08:35:28.115Z,1.00
2022-07-27T08:37:55.579Z,1.00
2022-07-27T08:40:42.576Z,1.00
2022-07-27T08:43:11.872Z,1.00
2022-07-27T08:45:40.837Z,1.10
2022-07-27T08:48:12.614Z,1.00
2022-07-27T08:50:42.589Z,0.90
2022-07-27T08:53:13.894Z,0.80
2022-07-27T08:55:42.723Z,0.90
2022-07-27T08:58:10.845Z,0.87
2022-07-27T09:00:43.915Z,0.97
2022-07-27T09:03:20.058Z,0.93
2022-07-27T09:05:52.801Z,0.80
2022-07-27T09:08:24.982Z,0.83
2022-07-27T09:10:53.571Z,1.10
2022-07-27T09:13:25.461Z,2.13
2022-07-27T09:18:42.600Z,1.07
2022-07-27T09:21:20.626Z,1.00
2022-07-27T09:24:23.075Z,0.83
2022-07-27T09:27:02.069Z,0.87
2022-07-27T09:29:34.327Z,0.97
2022-07-27T09:32:01.844Z,1.10
2022-07-27T09:34:30.299Z,0.80
2022-07-27T09:36:58.476Z,1.60
2022-07-27T09:39:27.151Z,2.50
2022-07-27T09:41:58.840Z,0.70
2022-07-27T09:44:44.771Z,1.60
2022-07-27T09:47:22.107Z,1.17
2022-07-27T09:49:49.652Z,0.60
2022-07-27T09:52:24.508Z,0.80
2022-07-27T09:54:52.401Z,1.00
2022-07-27T09:57:19.896Z,1.00
2022-07-27T09:59:47.492Z,0.97
2022-07-27T10:02:15.108Z,1.10
2022-07-27T10:04:42.801Z,1.10
2022-07-27T10:07:13.550Z,1.53
2022-07-27T10:09:41.604Z,1.20
2022-07-27T10:12:09.516Z,0.80
2022-07-27T10:14:37.087Z,1.40
2022-07-27T10:17:04.566Z,1.53
2022-07-27T10:19:34.893Z,1.13
2022-07-27T10:22:02.375Z,0.80
2022-07-27T10:24:31.726Z,1.27
2022-07-27T10:26:59.601Z,0.90
2022-07-27T10:29:27.098Z,1.10
2022-07-27T10:31:54.590Z,1.00
2022-07-27T10:34:41.557Z,1.20
2022-07-27T10:37:10.685Z,0.70
2022-07-27T10:39:39.634Z,0.83
2022-07-27T10:42:33.488Z,0.60
2022-07-27T10:45:00.954Z,0.70
2022-07-27T10:47:39.140Z,0.70
2022-07-27T10:50:19.726Z,0.90
2022-07-27T10:52:56.628Z,0.70
2022-07-27T10:55:30.494Z,0.70
2022-07-27T10:57:59.005Z,0.77
2022-07-27T11:00:48.843Z,0.80
2022-07-27T11:03:23.175Z,0.83
2022-07-27T11:06:31.442Z,0.97
2022-07-27T11:09:27.253Z,0.63
2022-07-27T11:11:43.317Z,0.90
2022-07-27T11:14:11.046Z,0.70
2022-07-27T11:16:54.134Z,1.30
2022-07-27T11:19:22.868Z,0.87
2022-07-27T11:21:50.435Z,0.70
2022-07-27T11:24:17.926Z,0.93
2022-07-27T11:26:45.442Z,0.90
2022-07-27T11:29:14.134Z,1.00
2022-07-27T11:31:55.167Z,0.77
2022-07-27T11:34:29.036Z,0.70
2022-07-27T11:36:56.980Z,0.90
2022-07-27T11:39:59.153Z,0.70
2022-07-27T11:42:21.213Z,0.40
2022-07-27T11:44:49.872Z,0.77
2022-07-27T11:47:19.538Z,0.40
2022-07-27T11:49:47.517Z,0.70
2022-07-27T11:52:17.434Z,0.70
2022-07-27T11:54:51.180Z,0.57
2022-07-27T11:57:18.675Z,0.63
2022-07-27T11:59:46.653Z,0.70
2022-07-27T12:02:18.449Z,0.50
2022-07-27T12:04:46.959Z,0.70
2022-07-27T12:07:17.698Z,0.80
2022-07-27T12:09:46.247Z,0.30
2022-07-27T12:12:15.988Z,0.90
2022-07-27T12:14:53.719Z,0.50
2022-07-27T12:17:30.403Z,0.90
2022-07-27T12:20:07.240Z,0.47
2022-07-27T12:22:34.704Z,0.70
2022-07-27T12:25:04.564Z,0.60
2022-07-27T12:27:37.537Z,0.50
2022-07-27T12:30:09.835Z,0.50
2022-07-27T12:32:42.429Z,0.90
2022-07-27T12:35:20.291Z,0.80
2022-07-27T12:37:48.457Z,0.90
2022-07-27T12:40:19.170Z,0.87
2022-07-27T12:42:46.838Z,0.60
2022-07-27T12:45:16.044Z,0.50
2022-07-27T12:47:43.534Z,0.60
2022-07-27T12:50:14.035Z,0.50
2022-07-27T12:52:51.983Z,0.60
2022-07-27T12:55:20.575Z,0.60
2022-07-27T12:57:56.908Z,0.50
2022-07-27T13:00:30.903Z,0.40
2022-07-27T13:03:01.581Z,0.67
2022-07-27T13:05:29.134Z,0.63
2022-07-27T13:07:56.698Z,0.80
2022-07-27T13:10:24.277Z,0.60
2022-07-27T13:12:52.168Z,0.57
2022-07-27T13:15:19.941Z,0.80
2022-07-27T13:17:48.696Z,0.73
2022-07-27T13:20:17.147Z,0.70
2022-07-27T13:22:45.272Z,0.70
2022-07-27T13:25:16.597Z,0.63
2022-07-27T13:27:45.772Z,0.60
2022-07-27T13:30:13.903Z,1.10
2022-07-27T13:32:41.872Z,0.70
2022-07-27T13:35:10.281Z,0.60
2022-07-27T13:37:37.787Z,1.17
2022-07-27T13:40:05.534Z,0.73
2022-07-27T13:42:33.163Z,0.90
2022-07-27T13:45:10.429Z,0.73
2022-07-27T13:47:39.818Z,0.57
2022-07-27T13:50:09.850Z,0.77
2022-07-27T13:52:41.077Z,1.07
2022-07-27T13:55:08.773Z,0.80
2022-07-27T13:57:36.306Z,0.90
2022-07-27T14:00:04.502Z,0.80
2022-07-27T14:02:32.129Z,1.00
2022-07-27T14:04:59.750Z,0.80
2022-07-27T14:07:28.635Z,0.70
2022-07-27T14:09:56.282Z,1.03
2022-07-27T14:12:23.799Z,0.73
2022-07-27T14:14:51.264Z,0.80
2022-07-27T14:17:18.766Z,0.80
2022-07-27T14:19:46.257Z,0.70
2022-07-27T14:22:13.764Z,0.97
2022-07-27T14:24:41.281Z,0.60
2022-07-27T14:27:08.799Z,0.80
2022-07-27T14:29:36.302Z,0.97
2022-07-27T14:32:04.764Z,0.80
2022-07-27T14:34:32.329Z,1.00
2022-07-27T14:36:59.872Z,0.80
2022-07-27T14:39:27.495Z,0.60
2022-07-27T14:41:55.075Z,0.90
2022-07-27T14:44:22.585Z,1.00
2022-07-27T14:46:50.187Z,0.80
2022-07-27T14:49:18.033Z,1.00
2022-07-27T14:51:45.712Z,1.33
2022-07-27T14:54:13.259Z,0.70
2022-07-27T14:56:40.769Z,0.90
2022-07-27T14:59:08.311Z,0.80
2022-07-27T15:01:35.918Z,0.70
2022-07-27T15:04:03.855Z,0.80
2022-07-27T15:06:36.814Z,0.97
2022-07-27T15:09:06.535Z,1.00
2022-07-27T15:11:34.120Z,0.83
2022-07-27T15:14:01.663Z,1.10
2022-07-27T15:16:32.705Z,0.80
2022-07-27T15:19:00.385Z,0.97
2022-07-27T15:21:27.978Z,0.90
2022-07-27T15:23:55.520Z,1.07
2022-07-27T15:26:23.039Z,0.53
2022-07-27T15:28:50.501Z,1.00
2022-07-27T15:31:18.001Z,1.27
2022-07-27T15:33:45.710Z,0.87
2022-07-27T15:36:33.124Z,0.70
2022-07-27T15:39:00.748Z,0.80
2022-07-27T15:41:28.346Z,1.80
2022-07-27T15:43:56.277Z,0.90
2022-07-27T15:46:27.240Z,0.97
2022-07-27T15:48:55.821Z,0.83
2022-07-27T15:51:23.315Z,0.70
2022-07-27T15:53:51.021Z,1.20
2022-07-27T15:56:18.837Z,0.80
2022-07-27T15:58:46.283Z,1.30
2022-07-27T16:01:13.847Z,1.17
2022-07-27T16:03:41.810Z,0.93
2022-07-27T16:06:09.377Z,0.90
2022-07-27T16:08:36.852Z,0.93
2022-07-27T16:11:04.345Z,1.00
2022-07-27T16:13:31.879Z,1.53
2022-07-27T16:15:59.381Z,1.20
2022-07-27T16:18:27.280Z,1.20
2022-07-27T16:20:54.877Z,1.10
2022-07-27T16:23:22.743Z,0.90
2022-07-27T16:26:03.757Z,1.10
2022-07-27T16:28:32.620Z,0.90
2022-07-27T16:31:00.192Z,1.10
2022-07-27T16:33:27.730Z,0.97
2022-07-27T16:35:55.203Z,0.97
2022-07-27T16:38:22.704Z,1.07
2022-07-27T16:40:50.172Z,1.40
2022-07-27T16:43:17.724Z,1.00
2022-07-27T16:45:45.214Z,2.47
2022-07-27T16:48:12.713Z,7.77
2022-07-27T16:50:40.946Z,13.20
2022-07-27T16:53:08.489Z,1.23
2022-07-27T16:55:35.932Z,0.80
2022-07-27T16:58:03.586Z,1.00
2022-07-27T17:00:35.106Z,1.00
2022-07-27T17:03:05.824Z,1.20
2022-07-27T17:05:33.548Z,1.00
2022-07-27T17:08:01.077Z,0.83
2022-07-27T17:10:28.655Z,1.30
2022-07-27T17:12:57.746Z,1.50
2022-07-27T17:15:25.675Z,1.40
2022-07-27T17:17:59.072Z,1.60
2022-07-27T17:20:32.894Z,1.30
2022-07-27T17:23:03.654Z,1.43
2022-07-27T17:25:31.176Z,1.50
2022-07-27T17:27:58.684Z,1.60
2022-07-27T17:30:26.215Z,1.43
2022-07-27T17:32:53.803Z,1.07
2022-07-27T17:35:21.486Z,0.83
2022-07-27T17:38:05.611Z,1.80
2022-07-27T17:40:34.554Z,1.47
2022-07-27T17:43:02.464Z,1.60
2022-07-27T17:45:30.009Z,1.40
2022-07-27T17:47:57.483Z,1.53
2022-07-27T17:50:25.235Z,1.43
2022-07-27T17:52:52.728Z,1.73
2022-07-27T17:55:20.305Z,1.80
2022-07-27T17:57:47.808Z,1.10
2022-07-27T18:00:15.908Z,1.20
2022-07-27T18:02:43.766Z,1.00
2022-07-27T18:05:11.578Z,1.00
2022-07-27T18:07:40.435Z,1.40
2022-07-27T18:10:08.727Z,1.00
2022-07-27T18:12:36.498Z,0.73
2022-07-27T18:15:05.812Z,1.10
2022-07-27T18:17:33.584Z,1.03
2022-07-27T18:20:01.313Z,1.60
2022-07-27T18:22:28.938Z,1.10
2022-07-27T18:24:56.394Z,0.73
2022-07-27T18:27:23.978Z,1.50
2022-07-27T18:29:51.512Z,1.20
2022-07-27T18:32:18.972Z,0.80
2022-07-27T18:34:47.786Z,0.83
2022-07-27T18:37:15.674Z,1.10
2022-07-27T18:39:43.140Z,0.93
2022-07-27T18:42:10.646Z,0.80
2022-07-27T18:44:39.114Z,1.57
2022-07-27T18:47:06.951Z,1.70
2022-07-27T18:49:34.700Z,0.90
2022-07-27T18:52:02.238Z,1.07
2022-07-27T18:54:29.907Z,1.10
2022-07-27T18:56:57.402Z,1.00
2022-07-27T18:59:24.955Z,1.20
2022-07-27T19:01:52.524Z,0.80
2022-07-27T19:04:20.060Z,1.10
2022-07-27T19:06:47.667Z,0.83
2022-07-27T19:09:17.006Z,1.27
2022-07-27T19:11:44.656Z,0.97
2022-07-27T19:14:12.166Z,1.30
2022-07-27T19:16:39.991Z,0.93
2022-07-27T19:19:11.698Z,1.43
2022-07-27T19:21:42.481Z,1.20
2022-07-27T19:24:10.492Z,1.10
2022-07-27T19:26:38.086Z,1.20
2022-07-27T19:29:05.593Z,0.90
2022-07-27T19:31:33.173Z,0.97
2022-07-27T19:34:01.087Z,1.40
2022-07-27T19:36:28.557Z,1.10
2022-07-27T19:38:56.188Z,1.00
2022-07-27T19:41:23.737Z,1.03
2022-07-27T19:43:51.202Z,1.00
2022-07-27T19:46:18.833Z,0.97
2022-07-27T19:48:46.508Z,1.47
2022-07-27T19:51:14.846Z,1.03
2022-07-27T19:53:44.364Z,1.03
2022-07-27T19:56:12.121Z,1.20
2022-07-27T19:58:39.566Z,1.50
2022-07-27T20:01:10.156Z,1.43
2022-07-27T20:03:52.677Z,1.60
2022-07-27T20:06:23.367Z,1.30
2022-07-27T20:08:50.866Z,1.50
2022-07-27T20:11:18.376Z,1.80
2022-07-27T20:13:45.889Z,2.03
2022-07-27T20:16:13.412Z,1.50
2022-07-27T20:18:41.062Z,1.30
2022-07-27T20:21:20.171Z,1.67
2022-07-27T20:23:51.892Z,2.40
2022-07-27T20:26:19.708Z,1.60
2022-07-27T20:28:47.630Z,1.20
2022-07-27T20:31:15.189Z,1.53
2022-07-27T20:33:42.814Z,1.13
2022-07-27T20:36:10.281Z,1.67
2022-07-27T20:38:40.255Z,1.43
2022-07-27T20:41:07.722Z,1.17
2022-07-27T20:43:35.274Z,1.17
2022-07-27T20:46:02.793Z,1.27
2022-07-27T20:48:30.415Z,1.20
2022-07-27T20:50:58.036Z,1.17
2022-07-27T20:53:25.578Z,1.10
2022-07-27T20:55:53.190Z,0.90
2022-07-27T20:58:20.695Z,1.67
2022-07-27T21:00:48.137Z,1.10
2022-07-27T21:03:15.740Z,1.27
2022-07-27T21:05:43.228Z,1.10
2022-07-27T21:08:10.837Z,1.40
2022-07-27T21:10:38.342Z,1.20
2022-07-27T21:13:05.875Z,1.77
2022-07-27T21:15:34.405Z,1.10
2022-07-27T21:18:02.570Z,1.20
2022-07-27T21:20:30.102Z,1.03
2022-07-27T21:22:57.629Z,0.70
2022-07-27T21:25:25.180Z,1.20
2022-07-27T21:27:54.185Z,1.20
2022-07-27T21:30:22.221Z,0.90
2022-07-27T21:32:49.830Z,0.80
2022-07-27T21:35:17.418Z,1.53
2022-07-27T21:37:45.896Z,0.90
2022-07-27T21:40:13.407Z,1.00
2022-07-27T21:42:40.937Z,0.90
2022-07-27T21:45:08.751Z,1.00
2022-07-27T21:47:36.223Z,0.90
2022-07-27T21:50:04.055Z,1.10
2022-07-27T21:52:31.602Z,1.33
2022-07-27T21:54:59.123Z,1.30
2022-07-27T21:57:26.622Z,1.20
2022-07-27T21:59:54.096Z,1.30
2022-07-27T22:02:22.413Z,1.20
2022-07-27T22:04:55.645Z,1.27
2022-07-27T22:07:23.140Z,1.30
2022-07-27T22:09:50.636Z,1.40
2022-07-27T22:12:18.097Z,2.53
2022-07-27T22:14:45.621Z,1.80
2022-07-27T22:17:13.080Z,1.23
2022-07-27T22:19:40.574Z,1.20
2022-07-27T22:22:08.064Z,1.20
2022-07-27T22:24:35.563Z,1.33
2022-07-27T22:27:03.019Z,1.80
2022-07-27T22:29:30.513Z,1.30
2022-07-27T22:31:58.034Z,1.40
2022-07-27T22:34:25.809Z,1.47
2022-07-27T22:36:53.388Z,1.10
2022-07-27T22:39:20.910Z,1.97
2022-07-27T22:41:48.368Z,1.20
2022-07-27T22:44:17.942Z,1.30
2022-07-27T22:46:47.985Z,1.70
2022-07-27T22:49:15.563Z,1.00
2022-07-27T22:51:49.159Z,1.60
2022-07-27T22:54:20.289Z,1.30
2022-07-27T22:56:47.946Z,1.37
2022-07-27T22:59:15.406Z,1.20
2022-07-27T23:01:47.199Z,1.50
2022-07-27T23:04:16.492Z,1.30
2022-07-27T23:06:44.538Z,1.27
2022-07-27T23:09:12.018Z,1.10
2022-07-27T23:11:39.479Z,1.40
2022-07-27T23:14:06.999Z,1.60
2022-07-27T23:16:34.853Z,2.33
2022-07-27T23:19:02.436Z,1.73
2022-07-27T23:21:29.939Z,1.53
2022-07-27T23:23:57.414Z,1.17
2022-07-27T23:26:26.429Z,1.33
2022-07-27T23:28:54.763Z,0.80
2022-07-27T23:31:22.649Z,0.80
2022-07-27T23:33:50.231Z,0.67
2022-07-27T23:36:17.800Z,0.60
2022-07-27T23:38:45.326Z,1.27
2022-07-27T23:41:12.824Z,0.80
2022-07-27T23:43:40.361Z,0.90
2022-07-27T23:46:07.886Z,0.80
2022-07-27T23:48:35.477Z,1.00
2022-07-27T23:51:02.980Z,1.23
2022-07-27T23:53:30.581Z,1.03
2022-07-27T23:55:58.024Z,1.07
2022-07-27T23:58:25.541Z,1.00
